Terminal Aerodrome Forecast
Issued by NWS Wichita, KS

Home | Current Version | Previous Version | Graphics & Text | Print | Product List | Glossary On
Versions: 1 2 3 4 5 6 7 8 9 10 11 12 13 14 15 16 17 18 19 20 21 22 23 24 25 26 27 28
000
FTUS43 KICT 231657 AAB
TAFICT
TAF AMD
KICT 231657Z 2317/2412 13008KT 3SM -DZ BR OVC004
     FM231800 15014KT 2SM -SHRA VCTS SCT009 OVC015CB
     FM232100 15012KT P6SM -RA OVC004
     FM240300 15011KT 4SM BR VCSH SCT006 OVC009
     FM240600 15008KT 2SM -DZ BR OVC002=

USA.gov is the U.S. government's official web portal to all federal, state and local government web resources and services.